sensor_id;sensor_type;location;lat;lon;timestamp;temperature;humidity
25568;DHT22;13455;51.480;7.594;2023-07-13T00:00:30;18.30;99.90
25568;DHT22;13455;51.480;7.594;2023-07-13T00:02:57;18.30;99.90
25568;DHT22;13455;51.480;7.594;2023-07-13T00:05:23;18.20;99.90
25568;DHT22;13455;51.480;7.594;2023-07-13T00:07:50;18.20;99.90
25568;DHT22;13455;51.480;7.594;2023-07-13T00:10:16;18.10;99.90
25568;DHT22;13455;51.480;7.594;2023-07-13T00:12:43;18.20;99.90
25568;DHT22;13455;51.480;7.594;2023-07-13T00:15:15;18.00;99.90
25568;DHT22;13455;51.480;7.594;2023-07-13T00:17:41;18.00;99.90
25568;DHT22;13455;51.480;7.594;2023-07-13T00:20:10;18.00;99.90
25568;DHT22;13455;51.480;7.594;2023-07-13T00:22:36;17.90;99.90
25568;DHT22;13455;51.480;7.594;2023-07-13T00:25:02;17.90;99.90
25568;DHT22;13455;51.480;7.594;2023-07-13T00:27:28;17.90;99.90
25568;DHT22;13455;51.480;7.594;2023-07-13T00:29:55;17.80;99.90
25568;DHT22;13455;51.480;7.594;2023-07-13T00:32:20;17.70;99.90
25568;DHT22;13455;51.480;7.594;2023-07-13T00:34:46;17.70;99.90
25568;DHT22;13455;51.480;7.594;2023-07-13T00:37:12;18.50;99.90
25568;DHT22;13455;51.480;7.594;2023-07-13T00:39:38;17.70;99.90
25568;DHT22;13455;51.480;7.594;2023-07-13T00:42:05;17.60;99.90
25568;DHT22;13455;51.480;7.594;2023-07-13T00:44:31;17.60;99.90
25568;DHT22;13455;51.480;7.594;2023-07-13T00:46:56;17.50;99.90
25568;DHT22;13455;51.480;7.594;2023-07-13T00:49:25;17.50;99.90
25568;DHT22;13455;51.480;7.594;2023-07-13T00:51:59;17.50;99.90
25568;DHT22;13455;51.480;7.594;2023-07-13T00:54:32;17.40;99.90
25568;DHT22;13455;51.480;7.594;2023-07-13T00:57:05;16.80;99.90
25568;DHT22;13455;51.480;7.594;2023-07-13T00:59:34;17.30;99.90
25568;DHT22;13455;51.480;7.594;2023-07-13T01:02:00;17.30;99.90
25568;DHT22;13455;51.480;7.594;2023-07-13T01:04:26;17.30;99.90
25568;DHT22;13455;51.480;7.594;2023-07-13T01:19:12;17.10;99.90
25568;DHT22;13455;51.480;7.594;2023-07-13T01:24:09;17.00;99.90
25568;DHT22;13455;51.480;7.594;2023-07-13T01:26:34;16.90;99.90
25568;DHT22;13455;51.480;7.594;2023-07-13T01:29:00;16.90;99.90
25568;DHT22;13455;51.480;7.594;2023-07-13T01:31:26;16.80;99.90
25568;DHT22;13455;51.480;7.594;2023-07-13T01:33:51;16.90;99.90
25568;DHT22;13455;51.480;7.594;2023-07-13T01:36:17;16.70;99.90
25568;DHT22;13455;51.480;7.594;2023-07-13T01:41:10;16.70;99.90
25568;DHT22;13455;51.480;7.594;2023-07-13T01:43:35;16.80;99.90
25568;DHT22;13455;51.480;7.594;2023-07-13T01:46:01;16.60;99.90
25568;DHT22;13455;51.480;7.594;2023-07-13T01:48:26;16.60;99.90
25568;DHT22;13455;51.480;7.594;2023-07-13T01:50:52;16.70;99.90
25568;DHT22;13455;51.480;7.594;2023-07-13T01:53:17;16.90;99.90
25568;DHT22;13455;51.480;7.594;2023-07-13T01:55:43;17.00;99.90
25568;DHT22;13455;51.480;7.594;2023-07-13T01:58:09;16.50;99.90
25568;DHT22;13455;51.480;7.594;2023-07-13T02:00:34;16.40;99.90
25568;DHT22;13455;51.480;7.594;2023-07-13T02:05:26;16.50;99.90
25568;DHT22;13455;51.480;7.594;2023-07-13T02:07:51;16.40;99.90
25568;DHT22;13455;51.480;7.594;2023-07-13T02:10:18;16.30;99.90
25568;DHT22;13455;51.480;7.594;2023-07-13T02:12:44;16.30;99.90
25568;DHT22;13455;51.480;7.594;2023-07-13T02:17:36;16.20;99.90
25568;DHT22;13455;51.480;7.594;2023-07-13T02:20:03;16.20;99.90
25568;DHT22;13455;51.480;7.594;2023-07-13T02:22:30;16.20;99.90
25568;DHT22;13455;51.480;7.594;2023-07-13T02:24:55;16.20;99.90
25568;DHT22;13455;51.480;7.594;2023-07-13T02:27:21;16.10;99.90
25568;DHT22;13455;51.480;7.594;2023-07-13T02:29:46;16.10;99.90
25568;DHT22;13455;51.480;7.594;2023-07-13T02:32:12;16.00;99.90
25568;DHT22;13455;51.480;7.594;2023-07-13T02:34:38;16.00;99.90
25568;DHT22;13455;51.480;7.594;2023-07-13T02:37:04;16.00;99.90
25568;DHT22;13455;51.480;7.594;2023-07-13T02:39:29;15.90;99.90
25568;DHT22;13455;51.480;7.594;2023-07-13T02:41:58;15.90;99.90
25568;DHT22;13455;51.480;7.594;2023-07-13T02:44:24;15.80;99.90
25568;DHT22;13455;51.480;7.594;2023-07-13T02:46:50;15.90;99.90
25568;DHT22;13455;51.480;7.594;2023-07-13T02:49:15;15.80;99.90
25568;DHT22;13455;51.480;7.594;2023-07-13T02:51:41;15.80;99.90
25568;DHT22;13455;51.480;7.594;2023-07-13T02:54:06;15.80;99.90
25568;DHT22;13455;51.480;7.594;2023-07-13T02:56:34;15.70;99.90
25568;DHT22;13455;51.480;7.594;2023-07-13T02:58:59;15.80;99.90
25568;DHT22;13455;51.480;7.594;2023-07-13T03:01:25;15.40;99.90
25568;DHT22;13455;51.480;7.594;2023-07-13T03:03:52;15.60;99.90
25568;DHT22;13455;51.480;7.594;2023-07-13T03:08:44;15.70;99.90
25568;DHT22;13455;51.480;7.594;2023-07-13T03:35:35;15.50;99.90
25568;DHT22;13455;51.480;7.594;2023-07-13T03:38:01;15.50;99.90
25568;DHT22;13455;51.480;7.594;2023-07-13T03:40:27;15.50;99.90
25568;DHT22;13455;51.480;7.594;2023-07-13T03:42:53;16.00;99.90
25568;DHT22;13455;51.480;7.594;2023-07-13T03:45:18;15.40;99.90
25568;DHT22;13455;51.480;7.594;2023-07-13T03:47:44;15.40;99.90
25568;DHT22;13455;51.480;7.594;2023-07-13T03:50:10;15.40;99.90
25568;DHT22;13455;51.480;7.594;2023-07-13T03:52:36;15.40;99.90
25568;DHT22;13455;51.480;7.594;2023-07-13T03:55:02;15.40;99.90
25568;DHT22;13455;51.480;7.594;2023-07-13T03:57:27;15.30;99.90
25568;DHT22;13455;51.480;7.594;2023-07-13T04:02:19;15.30;99.90
25568;DHT22;13455;51.480;7.594;2023-07-13T06:23:50;18.00;99.90
25568;DHT22;13455;51.480;7.594;2023-07-13T06:26:17;18.40;99.90
25568;DHT22;13455;51.480;7.594;2023-07-13T06:28:43;18.50;99.90
25568;DHT22;13455;51.480;7.594;2023-07-13T06:31:11;18.40;99.90
25568;DHT22;13455;51.480;7.594;2023-07-13T06:33:37;18.50;99.90
25568;DHT22;13455;51.480;7.594;2023-07-13T06:36:05;18.80;99.90
25568;DHT22;13455;51.480;7.594;2023-07-13T06:38:32;18.90;99.90
25568;DHT22;13455;51.480;7.594;2023-07-13T06:40:57;18.90;99.90
25568;DHT22;13455;51.480;7.594;2023-07-13T06:43:23;19.10;99.90
25568;DHT22;13455;51.480;7.594;2023-07-13T06:45:50;19.00;99.90
25568;DHT22;13455;51.480;7.594;2023-07-13T06:48:17;19.00;99.90
25568;DHT22;13455;51.480;7.594;2023-07-13T06:50:43;18.90;99.90
25568;DHT22;13455;51.480;7.594;2023-07-13T06:53:10;18.90;99.90
25568;DHT22;13455;51.480;7.594;2023-07-13T06:55:36;18.90;99.90
25568;DHT22;13455;51.480;7.594;2023-07-13T06:58:02;19.00;99.90
25568;DHT22;13455;51.480;7.594;2023-07-13T07:00:27;19.10;99.90
25568;DHT22;13455;51.480;7.594;2023-07-13T07:02:53;19.20;99.90
25568;DHT22;13455;51.480;7.594;2023-07-13T07:05:19;19.30;99.90
25568;DHT22;13455;51.480;7.594;2023-07-13T07:07:50;19.40;99.90
25568;DHT22;13455;51.480;7.594;2023-07-13T07:10:17;19.60;99.90
25568;DHT22;13455;51.480;7.594;2023-07-13T07:12:42;19.80;99.90
25568;DHT22;13455;51.480;7.594;2023-07-13T07:15:08;19.90;99.90
25568;DHT22;13455;51.480;7.594;2023-07-13T07:17:34;20.00;99.90
25568;DHT22;13455;51.480;7.594;2023-07-13T07:22:26;19.70;99.90
25568;DHT22;13455;51.480;7.594;2023-07-13T07:24:53;20.60;99.90
25568;DHT22;13455;51.480;7.594;2023-07-13T07:27:19;20.40;99.90
25568;DHT22;13455;51.480;7.594;2023-07-13T07:29:45;20.50;99.90
25568;DHT22;13455;51.480;7.594;2023-07-13T07:32:11;20.50;99.90
25568;DHT22;13455;51.480;7.594;2023-07-13T07:34:36;20.60;99.90
25568;DHT22;13455;51.480;7.594;2023-07-13T07:39:28;20.70;99.90
25568;DHT22;13455;51.480;7.594;2023-07-13T07:51:38;21.40;99.90
25568;DHT22;13455;51.480;7.594;2023-07-13T07:54:04;21.40;99.90
25568;DHT22;13455;51.480;7.594;2023-07-13T07:58:56;21.70;99.90
25568;DHT22;13455;51.480;7.594;2023-07-13T08:01:21;21.90;99.90
25568;DHT22;13455;51.480;7.594;2023-07-13T08:03:47;21.90;99.90
25568;DHT22;13455;51.480;7.594;2023-07-13T08:08:39;22.40;99.90
25568;DHT22;13455;51.480;7.594;2023-07-13T08:11:06;22.20;99.90
25568;DHT22;13455;51.480;7.594;2023-07-13T08:13:32;22.60;99.90
25568;DHT22;13455;51.480;7.594;2023-07-13T08:15:58;22.40;99.90
25568;DHT22;13455;51.480;7.594;2023-07-13T08:18:24;22.50;99.90
25568;DHT22;13455;51.480;7.594;2023-07-13T08:20:49;22.90;99.90
25568;DHT22;13455;51.480;7.594;2023-07-13T08:25:42;22.90;99.90
25568;DHT22;13455;51.480;7.594;2023-07-13T08:28:08;22.90;99.90
25568;DHT22;13455;51.480;7.594;2023-07-13T08:30:33;22.90;99.90
25568;DHT22;13455;51.480;7.594;2023-07-13T08:32:59;23.20;99.90
25568;DHT22;13455;51.480;7.594;2023-07-13T08:35:25;23.00;99.90
25568;DHT22;13455;51.480;7.594;2023-07-13T08:37:51;23.20;99.90
25568;DHT22;13455;51.480;7.594;2023-07-13T08:40:17;23.20;99.90
25568;DHT22;13455;51.480;7.594;2023-07-13T08:42:49;23.10;99.90
25568;DHT22;13455;51.480;7.594;2023-07-13T08:47:57;23.60;99.90
25568;DHT22;13455;51.480;7.594;2023-07-13T08:50:31;23.50;99.90
25568;DHT22;13455;51.480;7.594;2023-07-13T08:55:27;23.70;99.90
25568;DHT22;13455;51.480;7.594;2023-07-13T08:58:09;23.90;99.90
25568;DHT22;13455;51.480;7.594;2023-07-13T09:03:27;24.20;99.90
25568;DHT22;13455;51.480;7.594;2023-07-13T09:05:57;24.60;99.90
25568;DHT22;13455;51.480;7.594;2023-07-13T09:08:52;24.70;99.90
25568;DHT22;13455;51.480;7.594;2023-07-13T09:14:17;24.70;99.90
25568;DHT22;13455;51.480;7.594;2023-07-13T09:16:49;24.80;99.90
25568;DHT22;13455;51.480;7.594;2023-07-13T09:19:21;24.80;99.90
25568;DHT22;13455;51.480;7.594;2023-07-13T09:21:50;24.80;99.90
25568;DHT22;13455;51.480;7.594;2023-07-13T09:24:41;25.00;99.90
25568;DHT22;13455;51.480;7.594;2023-07-13T09:27:26;25.00;99.90
25568;DHT22;13455;51.480;7.594;2023-07-13T09:32:53;25.10;98.90
25568;DHT22;13455;51.480;7.594;2023-07-13T09:35:25;25.10;98.40
25568;DHT22;13455;51.480;7.594;2023-07-13T09:38:02;25.20;98.90
25568;DHT22;13455;51.480;7.594;2023-07-13T09:43:38;25.40;97.60
25568;DHT22;13455;51.480;7.594;2023-07-13T09:46:04;25.50;97.60
25568;DHT22;13455;51.480;7.594;2023-07-13T09:48:35;25.70;96.10
25568;DHT22;13455;51.480;7.594;2023-07-13T09:51:14;25.80;96.90
25568;DHT22;13455;51.480;7.594;2023-07-13T09:53:42;26.00;96.70
25568;DHT22;13455;51.480;7.594;2023-07-13T09:56:23;26.00;95.80
25568;DHT22;13455;51.480;7.594;2023-07-13T10:01:16;26.20;94.60
25568;DHT22;13455;51.480;7.594;2023-07-13T10:03:56;26.30;94.70
25568;DHT22;13455;51.480;7.594;2023-07-13T10:06:22;26.40;94.10
25568;DHT22;13455;51.480;7.594;2023-07-13T10:08:49;26.60;94.60
25568;DHT22;13455;51.480;7.594;2023-07-13T10:13:54;26.80;99.90
25568;DHT22;13455;51.480;7.594;2023-07-13T10:18:58;26.90;92.20
25568;DHT22;13455;51.480;7.594;2023-07-13T10:21:34;27.10;92.20
25568;DHT22;13455;51.480;7.594;2023-07-13T10:24:30;27.30;92.10
25568;DHT22;13455;51.480;7.594;2023-07-13T10:29:26;27.80;90.60
25568;DHT22;13455;51.480;7.594;2023-07-13T10:31:52;28.20;99.90
25568;DHT22;13455;51.480;7.594;2023-07-13T10:36:46;27.90;99.90
25568;DHT22;13455;51.480;7.594;2023-07-13T10:39:22;27.90;99.50
25568;DHT22;13455;51.480;7.594;2023-07-13T10:42:04;27.90;99.90
25568;DHT22;13455;51.480;7.594;2023-07-13T10:44:32;27.80;98.50
25568;DHT22;13455;51.480;7.594;2023-07-13T10:47:11;27.70;90.80
25568;DHT22;13455;51.480;7.594;2023-07-13T10:49:39;27.40;94.10
25568;DHT22;13455;51.480;7.594;2023-07-13T10:52:06;27.30;93.40
25568;DHT22;13455;51.480;7.594;2023-07-13T10:54:33;27.30;99.70
25568;DHT22;13455;51.480;7.594;2023-07-13T10:59:42;26.90;99.90
25568;DHT22;13455;51.480;7.594;2023-07-13T11:02:26;27.00;99.90
25568;DHT22;13455;51.480;7.594;2023-07-13T11:07:30;27.00;89.10
25568;DHT22;13455;51.480;7.594;2023-07-13T11:09:59;26.80;86.50
25568;DHT22;13455;51.480;7.594;2023-07-13T11:17:36;26.60;93.40
25568;DHT22;13455;51.480;7.594;2023-07-13T11:22:48;26.50;93.40
25568;DHT22;13455;51.480;7.594;2023-07-13T11:27:52;26.30;93.50
25568;DHT22;13455;51.480;7.594;2023-07-13T11:35:46;26.20;96.10
25568;DHT22;13455;51.480;7.594;2023-07-13T11:38:17;26.30;93.90
25568;DHT22;13455;51.480;7.594;2023-07-13T11:40:47;26.70;90.00
25568;DHT22;13455;51.480;7.594;2023-07-13T11:43:14;26.70;89.30
25568;DHT22;13455;51.480;7.594;2023-07-13T11:45:41;27.20;87.70
25568;DHT22;13455;51.480;7.594;2023-07-13T11:48:18;27.10;92.50
25568;DHT22;13455;51.480;7.594;2023-07-13T11:50:51;27.10;86.50
25568;DHT22;13455;51.480;7.594;2023-07-13T11:53:17;27.10;85.90
25568;DHT22;13455;51.480;7.594;2023-07-13T11:55:42;27.20;85.40
25568;DHT22;13455;51.480;7.594;2023-07-13T11:58:09;27.30;87.00
25568;DHT22;13455;51.480;7.594;2023-07-13T12:00:35;27.30;85.60
25568;DHT22;13455;51.480;7.594;2023-07-13T12:03:03;27.60;90.80
25568;DHT22;13455;51.480;7.594;2023-07-13T12:05:30;27.50;84.10
25568;DHT22;13455;51.480;7.594;2023-07-13T12:07:58;27.70;91.40
25568;DHT22;13455;51.480;7.594;2023-07-13T12:10:27;27.60;84.20
25568;DHT22;13455;51.480;7.594;2023-07-13T12:13:02;27.80;82.00
25568;DHT22;13455;51.480;7.594;2023-07-13T12:15:46;28.00;81.50
25568;DHT22;13455;51.480;7.594;2023-07-13T12:18:17;28.10;81.90
25568;DHT22;13455;51.480;7.594;2023-07-13T12:20:45;28.50;82.60
25568;DHT22;13455;51.480;7.594;2023-07-13T12:28:51;29.40;78.40
25568;DHT22;13455;51.480;7.594;2023-07-13T12:31:40;29.40;77.70
25568;DHT22;13455;51.480;7.594;2023-07-13T12:59:03;29.70;99.50
25568;DHT22;13455;51.480;7.594;2023-07-13T13:01:31;30.40;66.80
25568;DHT22;13455;51.480;7.594;2023-07-13T13:04:01;29.80;66.30
25568;DHT22;13455;51.480;7.594;2023-07-13T13:06:32;29.80;65.90
25568;DHT22;13455;51.480;7.594;2023-07-13T13:13:52;29.90;63.50
25568;DHT22;13455;51.480;7.594;2023-07-13T13:36:20;31.00;63.50
25568;DHT22;13455;51.480;7.594;2023-07-13T13:58:43;29.80;67.90
25568;DHT22;13455;51.480;7.594;2023-07-13T14:01:16;29.70;68.30
25568;DHT22;13455;51.480;7.594;2023-07-13T14:06:14;27.90;78.60
25568;DHT22;13455;51.480;7.594;2023-07-13T14:08:41;26.80;84.30
25568;DHT22;13455;51.480;7.594;2023-07-13T14:11:11;26.70;84.10
25568;DHT22;13455;51.480;7.594;2023-07-13T14:21:11;24.70;92.80
25568;DHT22;13455;51.480;7.594;2023-07-13T14:23:36;24.50;94.20
25568;DHT22;13455;51.480;7.594;2023-07-13T14:26:03;24.30;95.20
25568;DHT22;13455;51.480;7.594;2023-07-13T14:28:29;24.20;97.00
25568;DHT22;13455;51.480;7.594;2023-07-13T14:30:55;24.20;98.40
25568;DHT22;13455;51.480;7.594;2023-07-13T14:33:20;24.20;99.20
25568;DHT22;13455;51.480;7.594;2023-07-13T14:35:46;24.30;99.90
25568;DHT22;13455;51.480;7.594;2023-07-13T14:38:15;24.50;99.90
25568;DHT22;13455;51.480;7.594;2023-07-13T14:40:42;24.80;99.90
25568;DHT22;13455;51.480;7.594;2023-07-13T14:43:13;25.20;99.90
25568;DHT22;13455;51.480;7.594;2023-07-13T14:45:41;25.00;99.90
25568;DHT22;13455;51.480;7.594;2023-07-13T14:48:25;25.50;99.90
25568;DHT22;13455;51.480;7.594;2023-07-13T14:50:57;25.70;99.90
25568;DHT22;13455;51.480;7.594;2023-07-13T14:53:24;25.70;99.90
25568;DHT22;13455;51.480;7.594;2023-07-13T14:55:50;25.60;99.90
25568;DHT22;13455;51.480;7.594;2023-07-13T14:58:16;25.80;99.90
25568;DHT22;13455;51.480;7.594;2023-07-13T15:00:41;25.70;99.50
25568;DHT22;13455;51.480;7.594;2023-07-13T15:03:18;25.40;99.20
25568;DHT22;13455;51.480;7.594;2023-07-13T15:05:45;25.60;98.90
25568;DHT22;13455;51.480;7.594;2023-07-13T15:08:11;25.20;97.50
25568;DHT22;13455;51.480;7.594;2023-07-13T15:10:37;25.10;98.40
25568;DHT22;13455;51.480;7.594;2023-07-13T15:13:21;24.70;99.90
25568;DHT22;13455;51.480;7.594;2023-07-13T15:15:50;24.70;99.90
25568;DHT22;13455;51.480;7.594;2023-07-13T15:18:23;24.40;99.90
25568;DHT22;13455;51.480;7.594;2023-07-13T15:23:16;24.00;99.90
25568;DHT22;13455;51.480;7.594;2023-07-13T15:25:43;23.90;99.90
25568;DHT22;13455;51.480;7.594;2023-07-13T15:28:09;23.80;99.90
25568;DHT22;13455;51.480;7.594;2023-07-13T15:38:20;24.10;99.90
25568;DHT22;13455;51.480;7.594;2023-07-13T15:40:47;24.70;99.90
25568;DHT22;13455;51.480;7.594;2023-07-13T15:43:14;25.30;99.90
25568;DHT22;13455;51.480;7.594;2023-07-13T15:48:25;26.40;99.90
25568;DHT22;13455;51.480;7.594;2023-07-13T15:53:25;27.50;99.90
25568;DHT22;13455;51.480;7.594;2023-07-13T15:55:54;27.90;99.90
25568;DHT22;13455;51.480;7.594;2023-07-13T15:58:20;28.20;99.90
25568;DHT22;13455;51.480;7.594;2023-07-13T16:03:17;27.90;99.90
25568;DHT22;13455;51.480;7.594;2023-07-13T16:08:26;27.40;99.90
25568;DHT22;13455;51.480;7.594;2023-07-13T16:10:52;27.30;96.90
25568;DHT22;13455;51.480;7.594;2023-07-13T16:13:19;27.10;97.30
25568;DHT22;13455;51.480;7.594;2023-07-13T16:15:46;26.80;98.20
25568;DHT22;13455;51.480;7.594;2023-07-13T16:18:13;26.60;98.50
25568;DHT22;13455;51.480;7.594;2023-07-13T16:23:09;26.30;99.90
25568;DHT22;13455;51.480;7.594;2023-07-13T16:25:37;26.10;99.90
25568;DHT22;13455;51.480;7.594;2023-07-13T16:28:03;25.90;99.90
25568;DHT22;13455;51.480;7.594;2023-07-13T16:30:30;25.70;99.90
25568;DHT22;13455;51.480;7.594;2023-07-13T16:35:26;25.20;99.90
25568;DHT22;13455;51.480;7.594;2023-07-13T16:45:13;23.80;99.90
25568;DHT22;13455;51.480;7.594;2023-07-13T16:50:20;23.00;99.90
25568;DHT22;13455;51.480;7.594;2023-07-13T16:55:14;22.80;99.90
25568;DHT22;13455;51.480;7.594;2023-07-13T16:57:44;22.60;99.90
25568;DHT22;13455;51.480;7.594;2023-07-13T17:00:22;22.50;99.90
25568;DHT22;13455;51.480;7.594;2023-07-13T17:02:53;22.40;99.90
25568;DHT22;13455;51.480;7.594;2023-07-13T17:05:30;22.40;99.90
25568;DHT22;13455;51.480;7.594;2023-07-13T17:07:59;22.20;99.90
25568;DHT22;13455;51.480;7.594;2023-07-13T17:20:23;21.80;99.90
25568;DHT22;13455;51.480;7.594;2023-07-13T17:22:52;21.60;99.90
25568;DHT22;13455;51.480;7.594;2023-07-13T17:25:19;21.60;99.90
25568;DHT22;13455;51.480;7.594;2023-07-13T17:27:45;21.50;99.90
25568;DHT22;13455;51.480;7.594;2023-07-13T17:32:42;21.30;99.90
25568;DHT22;13455;51.480;7.594;2023-07-13T17:35:35;21.40;99.90
25568;DHT22;13455;51.480;7.594;2023-07-13T17:38:03;21.30;99.90
25568;DHT22;13455;51.480;7.594;2023-07-13T17:40:30;21.20;99.90
25568;DHT22;13455;51.480;7.594;2023-07-13T17:42:56;21.10;99.90
25568;DHT22;13455;51.480;7.594;2023-07-13T17:45:27;21.00;99.90
25568;DHT22;13455;51.480;7.594;2023-07-13T17:47:54;20.90;99.90
25568;DHT22;13455;51.480;7.594;2023-07-13T17:50:29;20.90;99.90
25568;DHT22;13455;51.480;7.594;2023-07-13T17:53:08;20.80;99.90
25568;DHT22;13455;51.480;7.594;2023-07-13T17:55:34;21.00;99.90
25568;DHT22;13455;51.480;7.594;2023-07-13T17:58:00;20.50;99.90
25568;DHT22;13455;51.480;7.594;2023-07-13T18:00:31;20.60;99.90
25568;DHT22;13455;51.480;7.594;2023-07-13T18:03:05;20.40;99.90
25568;DHT22;13455;51.480;7.594;2023-07-13T18:05:36;20.40;99.90
25568;DHT22;13455;51.480;7.594;2023-07-13T18:08:03;20.40;99.90
25568;DHT22;13455;51.480;7.594;2023-07-13T18:10:33;20.30;99.90
25568;DHT22;13455;51.480;7.594;2023-07-13T18:15:28;20.30;99.90
25568;DHT22;13455;51.480;7.594;2023-07-13T18:17:55;20.20;99.90
25568;DHT22;13455;51.480;7.594;2023-07-13T18:22:49;20.00;99.90
25568;DHT22;13455;51.480;7.594;2023-07-13T18:25:22;20.20;99.90
25568;DHT22;13455;51.480;7.594;2023-07-13T18:27:48;19.90;99.90
25568;DHT22;13455;51.480;7.594;2023-07-13T18:30:16;20.00;99.90
25568;DHT22;13455;51.480;7.594;2023-07-13T18:32:44;20.00;99.90
25568;DHT22;13455;51.480;7.594;2023-07-13T18:35:19;19.90;99.90
25568;DHT22;13455;51.480;7.594;2023-07-13T19:36:48;18.90;99.90
25568;DHT22;13455;51.480;7.594;2023-07-13T20:09:00;18.70;99.90
25568;DHT22;13455;51.480;7.594;2023-07-13T20:11:27;18.60;99.90
25568;DHT22;13455;51.480;7.594;2023-07-13T20:35:56;17.90;99.90
25568;DHT22;13455;51.480;7.594;2023-07-13T20:40:52;17.70;99.90
25568;DHT22;13455;51.480;7.594;2023-07-13T20:43:21;17.70;99.90
25568;DHT22;13455;51.480;7.594;2023-07-13T20:45:50;17.60;99.90
25568;DHT22;13455;51.480;7.594;2023-07-13T20:48:39;17.60;99.90
25568;DHT22;13455;51.480;7.594;2023-07-13T20:51:08;17.50;99.90
25568;DHT22;13455;51.480;7.594;2023-07-13T20:53:35;17.50;99.90
25568;DHT22;13455;51.480;7.594;2023-07-13T20:56:01;17.40;99.90
25568;DHT22;13455;51.480;7.594;2023-07-13T20:58:27;17.40;99.90
25568;DHT22;13455;51.480;7.594;2023-07-13T21:00:52;17.20;99.90
25568;DHT22;13455;51.480;7.594;2023-07-13T21:03:25;17.40;99.90
25568;DHT22;13455;51.480;7.594;2023-07-13T21:05:54;17.30;99.90
25568;DHT22;13455;51.480;7.594;2023-07-13T21:08:22;17.20;99.90
25568;DHT22;13455;51.480;7.594;2023-07-13T21:10:48;17.50;99.90
25568;DHT22;13455;51.480;7.594;2023-07-13T21:13:15;17.10;99.90
25568;DHT22;13455;51.480;7.594;2023-07-13T21:15:44;17.00;99.90
25568;DHT22;13455;51.480;7.594;2023-07-13T21:20:54;17.00;99.90
25568;DHT22;13455;51.480;7.594;2023-07-13T21:23:32;16.40;99.90
25568;DHT22;13455;51.480;7.594;2023-07-13T21:26:00;17.00;99.90
25568;DHT22;13455;51.480;7.594;2023-07-13T21:28:28;16.90;99.90
25568;DHT22;13455;51.480;7.594;2023-07-13T21:30:57;16.90;99.90
25568;DHT22;13455;51.480;7.594;2023-07-13T21:33:23;16.90;99.90
25568;DHT22;13455;51.480;7.594;2023-07-13T21:35:50;16.90;99.90
25568;DHT22;13455;51.480;7.594;2023-07-13T21:38:20;16.90;99.90
25568;DHT22;13455;51.480;7.594;2023-07-13T21:40:52;16.80;99.90
25568;DHT22;13455;51.480;7.594;2023-07-13T21:43:18;16.80;99.90
25568;DHT22;13455;51.480;7.594;2023-07-13T21:45:44;16.80;99.90
25568;DHT22;13455;51.480;7.594;2023-07-13T21:48:10;16.90;99.90
25568;DHT22;13455;51.480;7.594;2023-07-13T21:50:41;16.60;99.90
25568;DHT22;13455;51.480;7.594;2023-07-13T21:53:25;16.70;99.90
25568;DHT22;13455;51.480;7.594;2023-07-13T21:55:54;16.80;99.90
25568;DHT22;13455;51.480;7.594;2023-07-13T21:58:27;16.70;99.90
25568;DHT22;13455;51.480;7.594;2023-07-13T22:00:55;16.70;99.90
25568;DHT22;13455;51.480;7.594;2023-07-13T22:03:23;16.90;99.90
25568;DHT22;13455;51.480;7.594;2023-07-13T22:05:49;16.70;99.90
25568;DHT22;13455;51.480;7.594;2023-07-13T22:08:16;16.70;99.90
25568;DHT22;13455;51.480;7.594;2023-07-13T22:10:42;16.70;99.90
25568;DHT22;13455;51.480;7.594;2023-07-13T22:13:09;17.00;99.90
25568;DHT22;13455;51.480;7.594;2023-07-13T22:15:35;16.70;99.90
25568;DHT22;13455;51.480;7.594;2023-07-13T22:18:05;17.00;99.90
25568;DHT22;13455;51.480;7.594;2023-07-13T22:20:34;16.70;99.90
25568;DHT22;13455;51.480;7.594;2023-07-13T22:22:59;16.70;99.90
25568;DHT22;13455;51.480;7.594;2023-07-13T22:25:25;17.00;99.90
25568;DHT22;13455;51.480;7.594;2023-07-13T22:27:51;17.30;99.90
25568;DHT22;13455;51.480;7.594;2023-07-13T22:30:18;16.70;99.90
25568;DHT22;13455;51.480;7.594;2023-07-13T22:32:44;16.50;99.90
25568;DHT22;13455;51.480;7.594;2023-07-13T22:35:12;16.50;99.90
25568;DHT22;13455;51.480;7.594;2023-07-13T22:37:41;16.60;99.90
25568;DHT22;13455;51.480;7.594;2023-07-13T22:40:15;16.70;99.90
25568;DHT22;13455;51.480;7.594;2023-07-13T22:42:44;16.50;99.90
25568;DHT22;13455;51.480;7.594;2023-07-13T22:45:10;16.40;99.90
25568;DHT22;13455;51.480;7.594;2023-07-13T22:47:40;16.50;99.90
25568;DHT22;13455;51.480;7.594;2023-07-13T22:50:16;16.40;99.90
25568;DHT22;13455;51.480;7.594;2023-07-13T22:52:42;16.40;99.90
25568;DHT22;13455;51.480;7.594;2023-07-13T22:55:13;16.50;99.90
25568;DHT22;13455;51.480;7.594;2023-07-13T22:57:40;16.50;99.90
25568;DHT22;13455;51.480;7.594;2023-07-13T23:00:14;16.40;99.90
25568;DHT22;13455;51.480;7.594;2023-07-13T23:02:40;16.40;99.90
25568;DHT22;13455;51.480;7.594;2023-07-13T23:05:14;16.50;99.90
25568;DHT22;13455;51.480;7.594;2023-07-13T23:07:40;16.30;99.90
25568;DHT22;13455;51.480;7.594;2023-07-13T23:10:17;16.50;99.90
25568;DHT22;13455;51.480;7.594;2023-07-13T23:12:43;16.30;99.90
25568;DHT22;13455;51.480;7.594;2023-07-13T23:15:13;16.30;99.90
25568;DHT22;13455;51.480;7.594;2023-07-13T23:17:47;16.20;99.90
25568;DHT22;13455;51.480;7.594;2023-07-13T23:20:26;16.20;99.90
25568;DHT22;13455;51.480;7.594;2023-07-13T23:22:52;16.20;99.90
25568;DHT22;13455;51.480;7.594;2023-07-13T23:25:18;16.10;99.90
25568;DHT22;13455;51.480;7.594;2023-07-13T23:27:48;16.10;99.90
25568;DHT22;13455;51.480;7.594;2023-07-13T23:30:15;16.10;99.90
25568;DHT22;13455;51.480;7.594;2023-07-13T23:32:44;16.20;99.90
25568;DHT22;13455;51.480;7.594;2023-07-13T23:35:15;16.00;99.90
25568;DHT22;13455;51.480;7.594;2023-07-13T23:37:42;16.00;99.90
25568;DHT22;13455;51.480;7.594;2023-07-13T23:40:17;15.90;99.90
25568;DHT22;13455;51.480;7.594;2023-07-13T23:42:43;15.90;99.90
25568;DHT22;13455;51.480;7.594;2023-07-13T23:45:13;15.90;99.90
25568;DHT22;13455;51.480;7.594;2023-07-13T23:47:40;15.80;99.90
25568;DHT22;13455;51.480;7.594;2023-07-13T23:50:11;15.80;99.90
25568;DHT22;13455;51.480;7.594;2023-07-13T23:52:37;15.80;99.90
25568;DHT22;13455;51.480;7.594;2023-07-13T23:55:18;15.70;99.90
25568;DHT22;13455;51.480;7.594;2023-07-13T23:57:46;15.70;99.90
